Time;durP1;ratioP1;P1;durP2;ratioP2;P2;SDS_P1;SDS_P2;PMS_P1;PMS_P2;Temp;Humidity;BMP_temperature;BMP_pressure;BME280_temperature;BME280_humidity;BME280_pressure;Samples;Min_cycle;Max_cycle;Signal;HPM_P1;HPM_P2
2022/11/16 00:02:13;;;;;;;34.87;18.10;;;6.80;99.90;;;;;;5081347;28;20231;-78
2022/11/16 00:05:02;;;;;;;35.27;18.17;;;6.70;99.90;;;;;;5081672;28;20234;-78
2022/11/16 00:07:50;;;;;;;35.87;16.93;;;6.70;99.90;;;;;;5068890;28;20227;-79
2022/11/16 00:10:39;;;;;;;34.60;17.37;;;6.80;99.90;;;;;;5080430;28;20367;-78
2022/11/16 00:13:28;;;;;;;34.30;17.97;;;6.80;99.90;;;;;;5069543;28;20227;-77
2022/11/16 00:16:18;;;;;;;34.35;18.08;;;6.80;99.90;;;;;;5081536;28;20672;-77
2022/11/16 00:19:09;;;;;;;33.57;17.23;;;6.90;99.90;;;;;;5065693;28;20227;-78
2022/11/16 00:21:58;;;;;;;33.78;17.50;;;6.80;99.90;;;;;;5073411;28;20224;-76
2022/11/16 00:24:47;;;;;;;33.77;17.67;;;6.80;99.90;;;;;;5069006;28;20282;-78
2022/11/16 00:27:35;;;;;;;29.70;16.60;;;6.60;99.90;;;;;;5080184;28;20229;-77
2022/11/16 00:30:24;;;;;;;32.77;16.47;;;6.50;99.90;;;;;;5069356;28;20237;-77
2022/11/16 00:33:15;;;;;;;32.17;16.43;;;6.60;99.90;;;;;;5083840;28;20703;-76
2022/11/16 00:36:07;;;;;;;29.85;16.13;;;6.60;99.90;;;;;;5062136;28;20234;-78
2022/11/16 00:38:56;;;;;;;33.90;16.73;;;6.70;99.90;;;;;;5065045;28;20228;-77
2022/11/16 00:41:45;;;;;;;31.63;16.50;;;6.80;99.90;;;;;;5080589;28;20755;-78
2022/11/16 00:44:34;;;;;;;29.70;15.60;;;6.90;99.90;;;;;;5066676;28;20223;-77
2022/11/16 00:47:23;;;;;;;30.57;16.43;;;6.90;99.90;;;;;;5067878;28;20381;-76
2022/11/16 00:50:12;;;;;;;29.17;16.40;;;6.90;99.90;;;;;;5068342;28;20238;-78
2022/11/16 00:53:02;;;;;;;29.47;16.07;;;7.00;99.90;;;;;;5066953;28;20524;-79
2022/11/16 00:55:50;;;;;;;30.73;15.90;;;6.90;99.90;;;;;;5090632;28;20227;-78
2022/11/16 00:58:41;;;;;;;29.60;16.43;;;7.00;99.90;;;;;;5063577;28;20225;-78
2022/11/16 01:01:31;;;;;;;30.83;15.93;;;7.10;99.90;;;;;;5079615;28;20908;-77
2022/11/16 01:04:20;;;;;;;24.53;14.40;;;7.10;99.90;;;;;;5081128;28;20708;-78
2022/11/16 01:07:08;;;;;;;28.65;15.48;;;6.90;99.90;;;;;;5064200;28;20227;-78
2022/11/16 01:10:02;;;;;;;26.87;14.47;;;6.90;99.90;;;;;;5069714;28;20231;-78
2022/11/16 01:12:52;;;;;;;25.57;13.97;;;6.90;99.90;;;;;;5041721;28;20219;-78
2022/11/16 01:15:47;;;;;;;25.17;15.23;;;7.00;99.90;;;;;;5042701;28;20291;-79
2022/11/16 01:18:36;;;;;;;26.67;13.60;;;7.00;99.90;;;;;;5046270;28;20711;-79
2022/11/16 01:21:25;;;;;;;24.60;13.33;;;7.10;99.90;;;;;;5042988;28;20248;-78
2022/11/16 01:24:13;;;;;;;26.23;13.57;;;7.00;99.90;;;;;;5045492;28;20329;-78
2022/11/16 01:27:03;;;;;;;25.27;13.50;;;6.90;99.90;;;;;;5056531;28;20867;-78
2022/11/16 01:29:55;;;;;;;26.23;14.80;;;7.10;99.90;;;;;;5042692;28;20236;-75
2022/11/16 01:32:44;;;;;;;24.43;13.60;;;6.80;99.90;;;;;;5043372;28;20216;-77
2022/11/16 01:35:33;;;;;;;25.87;13.83;;;6.80;99.90;;;;;;5043502;28;20809;-77
2022/11/16 01:38:22;;;;;;;22.33;13.53;;;6.70;99.90;;;;;;5037962;28;20712;-77
2022/11/16 01:41:20;;;;;;;23.43;13.63;;;6.80;99.90;;;;;;5040426;28;20268;-77
2022/11/16 01:44:53;;;;;;;24.00;13.23;;;6.70;99.90;;;;;;5046463;28;20223;-76
2022/11/16 01:47:44;;;;;;;23.13;13.00;;;6.70;99.90;;;;;;5046539;28;20234;-77
2022/11/16 01:50:36;;;;;;;26.27;14.55;;;6.70;99.90;;;;;;5042470;28;20781;-74
2022/11/16 01:53:25;;;;;;;24.83;13.68;;;6.80;99.90;;;;;;5043429;28;20227;-75
2022/11/16 01:56:17;;;;;;;26.37;14.10;;;6.70;99.90;;;;;;5058972;28;20230;-76
2022/11/16 01:59:25;;;;;;;23.00;12.90;;;6.60;99.90;;;;;;5041311;28;20233;-76
2022/11/16 02:02:15;;;;;;;23.07;13.30;;;6.70;99.90;;;;;;5060840;28;20225;-77
2022/11/16 02:05:07;;;;;;;22.77;13.37;;;6.80;99.90;;;;;;5057439;28;20604;-75
2022/11/16 02:11:53;;;;;;;23.90;13.07;;;6.90;99.90;;;;;;5068472;28;20355;-76
2022/11/16 02:15:07;;;;;;;24.17;13.37;;;6.80;99.90;;;;;;5063788;28;20715;-77
2022/11/16 02:18:06;;;;;;;22.33;12.50;;;6.90;99.90;;;;;;5060580;28;20222;-77
2022/11/16 02:21:33;;;;;;;23.67;12.83;;;6.90;99.90;;;;;;5061364;28;20216;-75
2022/11/16 02:24:43;;;;;;;24.13;13.27;;;6.80;99.90;;;;;;5014385;28;20239;-75
2022/11/16 02:28:10;;;;;;;22.70;11.87;;;7.10;99.90;;;;;;5065749;28;20234;-75
2022/11/16 02:31:07;;;;;;;20.77;12.15;;;6.90;99.90;;;;;;5072038;28;20310;-75
2022/11/16 02:33:57;;;;;;;19.23;11.70;;;7.00;99.90;;;;;;5070456;28;20213;-76
2022/11/16 02:36:49;;;;;;;20.23;11.90;;;6.90;99.90;;;;;;5065462;28;20234;-76
2022/11/16 02:39:40;;;;;;;23.27;12.97;;;6.90;99.90;;;;;;5066905;28;20228;-76
2022/11/16 02:42:32;;;;;;;23.30;12.73;;;6.80;99.90;;;;;;5064653;28;20222;-76
2022/11/16 02:45:28;;;;;;;24.53;13.33;;;6.90;99.90;;;;;;5066328;28;20303;-76
2022/11/16 02:48:23;;;;;;;19.80;11.77;;;6.90;99.90;;;;;;5078672;28;20686;-77
2022/11/16 02:51:12;;;;;;;23.43;12.73;;;6.90;99.90;;;;;;5063416;28;20231;-78
2022/11/16 02:54:11;;;;;;;22.97;13.13;;;7.00;99.90;;;;;;5066586;28;20843;-78
2022/11/16 02:57:31;;;;;;;22.07;12.37;;;6.90;99.90;;;;;;5075270;28;20236;-77
2022/11/16 03:00:23;;;;;;;25.47;13.47;;;6.90;99.90;;;;;;5076566;28;20227;-77
2022/11/16 03:03:24;;;;;;;24.27;13.40;;;6.90;99.90;;;;;;5066354;28;20223;-78
2022/11/16 03:06:18;;;;;;;23.00;13.88;;;6.80;99.90;;;;;;5066247;28;20336;-76
2022/11/16 03:09:12;;;;;;;23.50;13.88;;;6.80;99.90;;;;;;5061288;28;20307;-78
2022/11/16 03:12:04;;;;;;;26.63;14.20;;;6.70;99.90;;;;;;5041767;28;20277;-82
2022/11/16 03:14:59;;;;;;;24.17;14.00;;;6.80;99.90;;;;;;5040310;28;20243;-82
2022/11/16 03:17:50;;;;;;;22.07;12.40;;;6.90;99.90;;;;;;5043648;28;20899;-81
2022/11/16 03:20:44;;;;;;;25.27;14.83;;;6.80;99.90;;;;;;5048287;28;20216;-81
2022/11/16 03:23:33;;;;;;;24.63;13.57;;;6.90;99.90;;;;;;5045706;28;20562;-82
2022/11/16 03:26:25;;;;;;;26.43;14.40;;;6.80;99.90;;;;;;5047748;28;20703;-82
2022/11/16 03:29:20;;;;;;;24.10;13.80;;;6.90;99.90;;;;;;5037507;28;20341;-82
2022/11/16 03:32:17;;;;;;;26.30;15.53;;;6.80;99.90;;;;;;5046415;28;20232;-82
2022/11/16 03:35:13;;;;;;;23.43;14.37;;;7.00;99.90;;;;;;5045228;28;20232;-82
2022/11/16 03:38:07;;;;;;;25.23;15.43;;;7.00;99.90;;;;;;5061042;28;20216;-80
2022/11/16 03:40:59;;;;;;;24.77;14.27;;;7.00;99.90;;;;;;5043737;28;20216;-80
2022/11/16 03:43:50;;;;;;;23.20;13.40;;;7.00;99.90;;;;;;5044573;28;20220;-80
2022/11/16 03:46:39;;;;;;;25.23;14.43;;;6.80;99.90;;;;;;5061109;28;20242;-80
2022/11/16 03:49:31;;;;;;;26.60;15.00;;;6.70;99.90;;;;;;5071378;28;20226;-78
2022/11/16 03:52:20;;;;;;;27.40;14.73;;;6.90;99.90;;;;;;5047106;28;20396;-79
2022/11/16 03:55:12;;;;;;;31.17;15.77;;;6.80;99.90;;;;;;5044320;28;20229;-81
2022/11/16 03:58:03;;;;;;;28.27;15.80;;;6.80;99.90;;;;;;5043698;28;20846;-79
2022/11/16 04:00:53;;;;;;;26.83;14.83;;;6.70;99.90;;;;;;5048833;28;20231;-78
2022/11/16 04:03:42;;;;;;;29.17;15.97;;;6.90;99.90;;;;;;5044914;28;20216;-78
2022/11/16 04:25:18;;;;;;;28.23;16.83;;;6.80;99.90;;;;;;5064590;28;20227;-80
2022/11/16 04:28:15;;;;;;;31.53;18.07;;;6.70;99.90;;;;;;5079309;28;20243;-79
2022/11/16 04:37:52;;;;;;;34.20;17.63;;;6.70;99.90;;;;;;5078508;28;20222;-76
2022/11/16 04:40:48;;;;;;;34.77;18.47;;;6.80;99.90;;;;;;5068431;28;20230;-76
2022/11/16 04:43:39;;;;;;;32.33;18.77;;;6.80;99.90;;;;;;5070755;28;20224;-76
2022/11/16 04:49:34;;;;;;;35.75;18.67;;;6.80;99.90;;;;;;5080445;28;20321;-78
2022/11/16 04:52:23;;;;;;;32.13;17.70;;;6.70;99.90;;;;;;5063685;28;20576;-76
2022/11/16 04:55:14;;;;;;;33.63;17.93;;;6.70;99.90;;;;;;5061994;28;20219;-76
2022/11/16 04:58:05;;;;;;;33.93;18.23;;;6.60;99.90;;;;;;5082612;28;20327;-75
2022/11/16 05:00:55;;;;;;;36.13;19.37;;;6.70;99.90;;;;;;5074038;28;20273;-76
2022/11/16 05:03:43;;;;;;;33.33;18.10;;;6.80;99.90;;;;;;5070653;28;20283;-74
2022/11/16 05:06:32;;;;;;;35.33;18.27;;;6.90;99.90;;;;;;5071214;28;20333;-75
2022/11/16 05:09:21;;;;;;;35.75;18.92;;;6.90;99.90;;;;;;5066075;28;20416;-75
2022/11/16 05:12:10;;;;;;;37.17;18.40;;;6.90;99.90;;;;;;5065596;28;20226;-76
2022/11/16 05:14:59;;;;;;;34.80;18.50;;;6.60;99.90;;;;;;5068273;28;20226;-76
2022/11/16 05:17:54;;;;;;;34.50;18.27;;;6.80;99.90;;;;;;5069112;28;20555;-77
2022/11/16 05:20:59;;;;;;;34.47;18.47;;;6.60;99.90;;;;;;5067535;28;20226;-77
2022/11/16 05:26:57;;;;;;;35.23;18.70;;;6.50;99.90;;;;;;5065434;28;20253;-77
2022/11/16 05:29:48;;;;;;;41.33;19.80;;;6.50;99.90;;;;;;5066584;28;20222;-78
2022/11/16 05:32:39;;;;;;;37.40;19.10;;;6.50;99.90;;;;;;5065957;28;20701;-77
2022/11/16 05:35:30;;;;;;;36.87;18.47;;;6.50;99.90;;;;;;5066217;28;20228;-78
2022/11/16 05:38:22;;;;;;;33.20;18.07;;;6.60;99.90;;;;;;5080375;28;20229;-76
2022/11/16 05:41:14;;;;;;;38.73;19.60;;;6.70;99.90;;;;;;5058364;28;20337;-77
2022/11/16 05:44:04;;;;;;;36.93;18.43;;;6.70;99.90;;;;;;5066530;28;20242;-76
2022/11/16 05:46:54;;;;;;;37.27;19.50;;;6.60;99.90;;;;;;5059815;28;20231;-75
2022/11/16 05:49:43;;;;;;;38.77;19.93;;;6.50;99.90;;;;;;5067784;28;20305;-76
2022/11/16 05:52:34;;;;;;;38.20;18.73;;;6.60;99.90;;;;;;5059748;28;20384;-75
2022/11/16 05:55:27;;;;;;;38.27;19.97;;;6.60;99.90;;;;;;5066157;28;20219;-75
2022/11/16 05:58:15;;;;;;;38.70;19.93;;;6.70;99.90;;;;;;5059912;28;20231;-75
2022/11/16 06:01:04;;;;;;;36.27;19.03;;;6.70;99.90;;;;;;5060697;28;20236;-77
2022/11/16 06:03:53;;;;;;;37.00;19.23;;;6.80;99.90;;;;;;5078198;28;20218;-76
2022/11/16 06:06:42;;;;;;;37.53;18.47;;;6.70;99.90;;;;;;5070551;28;20224;-77
2022/11/16 06:10:09;;;;;;;39.23;19.07;;;6.80;99.90;;;;;;5078671;28;20632;-77
2022/11/16 06:12:59;;;;;;;33.43;18.43;;;6.70;99.90;;;;;;5082040;28;20246;-76
2022/11/16 06:15:47;;;;;;;35.03;19.07;;;6.70;99.90;;;;;;5062310;28;20211;-78
2022/11/16 06:18:44;;;;;;;34.97;17.97;;;6.80;99.90;;;;;;5060645;28;20233;-77
2022/11/16 06:21:35;;;;;;;35.07;17.40;;;6.90;99.90;;;;;;5061391;28;20977;-80
2022/11/16 06:24:26;;;;;;;32.83;17.80;;;6.70;99.90;;;;;;5063912;28;20218;-78
2022/11/16 06:27:16;;;;;;;34.07;17.60;;;6.80;99.90;;;;;;5076647;28;20315;-77
2022/11/16 06:30:07;;;;;;;31.10;17.23;;;6.80;99.90;;;;;;5065767;28;20231;-78
2022/11/16 06:32:55;;;;;;;33.03;17.80;;;6.80;99.90;;;;;;5078914;28;20215;-79
2022/11/16 06:35:44;;;;;;;29.90;16.97;;;6.80;99.90;;;;;;5060534;28;20226;-78
2022/11/16 06:38:37;;;;;;;31.57;17.07;;;6.90;99.90;;;;;;5063460;28;20244;-77
2022/11/16 06:41:27;;;;;;;30.00;16.43;;;6.80;99.90;;;;;;5067128;28;20257;-82
2022/11/16 06:44:17;;;;;;;30.50;16.30;;;6.80;99.90;;;;;;5064147;28;20264;-78
2022/11/16 06:47:15;;;;;;;29.60;16.13;;;6.80;99.90;;;;;;5068299;28;20255;-78
2022/11/16 06:50:04;;;;;;;31.70;17.03;;;6.70;99.90;;;;;;5069171;28;20713;-79
2022/11/16 06:52:54;;;;;;;31.83;17.37;;;6.80;99.90;;;;;;5075522;28;20218;-80
2022/11/16 06:55:43;;;;;;;30.13;15.97;;;6.80;99.90;;;;;;5063391;28;20518;-79
2022/11/16 06:58:33;;;;;;;31.00;16.50;;;6.80;99.90;;;;;;5065489;28;20223;-78
2022/11/16 07:01:25;;;;;;;34.47;15.97;;;6.80;99.90;;;;;;5082936;28;20231;-80
2022/11/16 07:04:19;;;;;;;31.00;16.87;;;6.80;99.90;;;;;;5077693;28;20235;-76
2022/11/16 07:07:15;;;;;;;29.60;15.90;;;6.80;99.90;;;;;;5067681;28;20260;-80
2022/11/16 07:10:07;;;;;;;29.33;16.23;;;6.80;99.90;;;;;;5078886;28;20265;-79
2022/11/16 07:12:56;;;;;;;30.57;17.33;;;6.90;99.90;;;;;;5071944;28;20224;-77
2022/11/16 07:15:45;;;;;;;28.70;15.80;;;7.00;99.90;;;;;;5069185;28;20226;-75
2022/11/16 07:18:36;;;;;;;30.63;15.67;;;6.90;99.90;;;;;;5082074;28;20233;-81
2022/11/16 07:21:26;;;;;;;29.77;16.37;;;7.00;99.90;;;;;;5068841;28;20227;-77
2022/11/16 07:24:15;;;;;;;29.07;16.20;;;6.90;99.90;;;;;;5065966;28;20538;-82
2022/11/16 07:27:04;;;;;;;27.27;15.23;;;6.90;99.90;;;;;;5069483;28;20784;-81
2022/11/16 07:29:56;;;;;;;29.07;17.43;;;6.90;99.90;;;;;;5059735;28;20214;-81
2022/11/16 07:33:08;;;;;;;30.53;16.07;;;6.90;99.90;;;;;;5061624;28;20265;-81
2022/11/16 07:36:28;;;;;;;27.90;16.50;;;6.80;99.90;;;;;;5074101;28;20224;-78
2022/11/16 07:39:17;;;;;;;28.30;16.80;;;6.90;99.90;;;;;;5078014;28;20273;-77
2022/11/16 07:42:10;;;;;;;30.97;16.80;;;6.90;99.90;;;;;;5070489;28;20694;-78
2022/11/16 07:45:25;;;;;;;31.90;16.57;;;6.90;99.90;;;;;;5068670;28;20223;-79
2022/11/16 07:48:18;;;;;;;25.70;15.97;;;6.90;99.90;;;;;;5063428;28;20220;-79
2022/11/16 07:51:45;;;;;;;30.43;16.10;;;7.00;99.90;;;;;;5010672;28;20221;-75
2022/11/16 07:55:06;;;;;;;29.97;16.73;;;6.90;99.90;;;;;;5058194;28;20546;-76
2022/11/16 07:57:56;;;;;;;30.60;17.77;;;7.00;99.90;;;;;;5056488;28;20223;-76
2022/11/16 08:00:46;;;;;;;30.97;17.67;;;6.90;99.90;;;;;;5063261;28;20582;-76
2022/11/16 08:03:36;;;;;;;30.90;16.93;;;6.90;99.90;;;;;;5080965;28;20219;-76
2022/11/16 08:06:28;;;;;;;31.37;18.33;;;6.80;99.90;;;;;;5062343;28;20221;-76
2022/11/16 08:09:18;;;;;;;33.87;18.10;;;6.70;99.90;;;;;;5081255;28;20246;-74
2022/11/16 08:12:09;;;;;;;32.63;18.87;;;6.70;99.90;;;;;;5044394;28;20797;-76
2022/11/16 08:14:58;;;;;;;35.77;18.20;;;6.90;99.90;;;;;;5044809;28;20228;-76
2022/11/16 08:17:47;;;;;;;32.37;18.97;;;7.00;99.90;;;;;;5056988;28;20760;-75
2022/11/16 08:20:36;;;;;;;33.30;18.37;;;6.90;99.90;;;;;;5059478;28;20229;-76
2022/11/16 08:23:26;;;;;;;35.10;18.47;;;6.80;99.90;;;;;;5061260;28;20821;-76
2022/11/16 08:26:18;;;;;;;36.17;18.43;;;6.70;99.90;;;;;;5054591;28;20239;-76
2022/11/16 08:29:14;;;;;;;33.40;18.30;;;6.80;99.90;;;;;;5055435;28;20794;-76
2022/11/16 08:32:08;;;;;;;33.20;18.33;;;6.70;99.90;;;;;;5039934;28;20231;-76
2022/11/16 08:34:57;;;;;;;31.87;18.03;;;6.70;99.90;;;;;;5057987;28;20993;-77
2022/11/16 08:37:46;;;;;;;29.43;18.07;;;6.60;99.90;;;;;;5061864;28;20219;-76
2022/11/16 08:40:55;;;;;;;32.43;17.33;;;6.70;99.90;;;;;;5058414;28;20216;-76
2022/11/16 08:43:49;;;;;;;26.33;16.00;;;6.70;99.90;;;;;;5057165;28;20224;-74
2022/11/16 08:46:40;;;;;;;28.00;16.10;;;6.70;99.90;;;;;;5058400;28;20231;-76
2022/11/16 08:49:44;;;;;;;29.87;15.57;;;6.70;99.90;;;;;;5060538;28;20218;-78
2022/11/16 08:52:38;;;;;;;25.03;15.13;;;6.90;99.90;;;;;;5064396;28;20226;-73
2022/11/16 08:55:27;;;;;;;26.10;15.23;;;6.90;99.90;;;;;;5063663;28;20241;-76
2022/11/16 08:58:16;;;;;;;24.97;14.93;;;7.00;99.90;;;;;;5046452;28;20230;-79
2022/11/16 09:01:11;;;;;;;25.90;15.20;;;7.00;99.90;;;;;;5061112;28;20667;-76
2022/11/16 09:04:00;;;;;;;22.27;14.27;;;7.00;99.90;;;;;;5072549;28;20403;-74
2022/11/16 09:06:48;;;;;;;20.07;12.80;;;6.90;99.90;;;;;;5045584;28;20219;-75
2022/11/16 09:09:37;;;;;;;22.87;13.00;;;6.80;99.90;;;;;;5047300;28;20277;-75
2022/11/16 09:12:26;;;;;;;20.27;12.40;;;6.80;99.90;;;;;;5046782;28;20227;-74
2022/11/16 09:15:15;;;;;;;20.43;11.73;;;6.90;99.90;;;;;;5058655;28;20478;-78
2022/11/16 09:18:05;;;;;;;19.33;12.27;;;6.90;99.90;;;;;;5046138;28;20330;-76
2022/11/16 09:20:54;;;;;;;20.30;12.07;;;6.80;99.90;;;;;;5062077;28;20220;-76
2022/11/16 09:23:42;;;;;;;17.87;12.10;;;6.80;99.90;;;;;;5043459;28;20235;-75
2022/11/16 09:26:31;;;;;;;20.20;11.30;;;6.90;99.90;;;;;;5055897;28;20832;-75
2022/11/16 16:39:10;;;;;;;7.27;5.50;;;4.60;99.90;;;;;;5032741;27;21237;-75
2022/11/16 16:41:58;;;;;;;7.53;5.37;;;4.40;99.90;;;;;;5028528;28;20291;-76
2022/11/16 16:44:48;;;;;;;10.23;5.80;;;4.50;99.90;;;;;;5025242;28;20687;-75
2022/11/16 16:47:36;;;;;;;11.83;8.10;;;4.50;99.90;;;;;;5026335;28;20952;-77
2022/11/16 16:50:25;;;;;;;8.20;5.63;;;4.60;99.90;;;;;;5025012;28;20926;-76
2022/11/16 16:53:14;;;;;;;9.80;4.93;;;4.50;99.90;;;;;;5041649;28;20335;-76
2022/11/16 16:56:05;;;;;;;7.40;4.60;;;4.50;99.90;;;;;;5030893;28;20232;-77
2022/11/16 16:58:54;;;;;;;6.37;4.50;;;4.60;99.90;;;;;;5025914;28;20231;-76
2022/11/16 17:01:43;;;;;;;7.37;4.60;;;4.60;99.90;;;;;;5029718;28;20228;-77
2022/11/16 17:04:32;;;;;;;7.47;3.50;;;4.60;99.90;;;;;;5029340;28;20228;-72
2022/11/16 17:07:21;;;;;;;5.20;4.33;;;4.70;99.90;;;;;;5024735;28;20229;-72
2022/11/16 17:10:10;;;;;;;4.70;4.00;;;4.70;99.90;;;;;;5025078;28;20221;-71
2022/11/16 17:13:04;;;;;;;5.20;4.20;;;4.60;99.90;;;;;;5032211;28;20236;-71
2022/11/16 17:15:52;;;;;;;5.43;4.17;;;4.70;99.90;;;;;;5028878;28;20217;-71
2022/11/16 17:18:43;;;;;;;5.93;3.93;;;4.80;99.90;;;;;;5032041;28;20320;-70
2022/11/16 17:21:32;;;;;;;5.40;3.97;;;4.70;99.90;;;;;;5033386;28;20232;-72
2022/11/16 17:24:21;;;;;;;5.00;4.13;;;4.70;99.90;;;;;;5028274;28;20324;-71
2022/11/16 17:27:09;;;;;;;8.27;6.30;;;4.70;99.90;;;;;;5033648;28;20731;-73
2022/11/16 17:29:59;;;;;;;4.77;3.80;;;4.70;99.90;;;;;;5029549;28;20304;-71
2022/11/16 17:32:48;;;;;;;4.17;3.27;;;4.80;99.90;;;;;;5033007;28;20738;-72
2022/11/16 17:35:36;;;;;;;3.97;3.40;;;4.60;99.90;;;;;;5030166;28;20229;-72
2022/11/16 17:38:25;;;;;;;3.80;3.30;;;4.70;99.90;;;;;;5025058;28;20236;-72
2022/11/16 17:41:15;;;;;;;5.23;3.43;;;4.80;99.90;;;;;;5030948;28;20228;-72
2022/11/16 17:44:05;;;;;;;3.33;2.87;;;4.90;99.90;;;;;;5031538;28;20363;-73
2022/11/16 17:46:55;;;;;;;3.90;2.80;;;4.70;99.90;;;;;;5027900;28;20223;-73
2022/11/16 17:49:44;;;;;;;3.83;2.83;;;4.60;99.90;;;;;;5021594;28;20257;-73
2022/11/16 17:52:33;;;;;;;3.97;3.10;;;4.70;99.90;;;;;;5017619;28;20222;-72
2022/11/16 17:55:22;;;;;;;3.80;3.00;;;4.60;99.90;;;;;;5014282;28;20709;-72
2022/11/16 17:58:10;;;;;;;4.17;3.40;;;4.80;99.90;;;;;;5014927;28;20226;-73
2022/11/16 18:00:59;;;;;;;4.77;3.20;;;4.80;99.90;;;;;;5013954;28;21159;-73
2022/11/16 18:03:49;;;;;;;4.80;3.40;;;4.90;99.90;;;;;;5016746;28;20315;-74
2022/11/16 18:06:38;;;;;;;4.47;3.40;;;4.80;99.90;;;;;;5010351;28;20260;-73
2022/11/16 18:09:27;;;;;;;4.30;3.30;;;4.80;99.90;;;;;;5016844;28;20586;-74
2022/11/16 18:12:15;;;;;;;5.83;3.80;;;4.70;99.90;;;;;;5019939;28;20237;-74
2022/11/16 18:15:05;;;;;;;5.20;4.27;;;4.60;99.90;;;;;;5015314;28;20221;-74
2022/11/16 18:18:13;;;;;;;4.83;4.07;;;4.60;99.90;;;;;;5002723;28;20234;-74
2022/11/16 18:21:04;;;;;;;5.50;4.30;;;4.70;99.90;;;;;;5006512;28;20225;-73
2022/11/16 18:23:53;;;;;;;8.53;5.33;;;4.70;99.90;;;;;;5017568;28;20818;-74
2022/11/16 18:26:42;;;;;;;5.03;3.90;;;4.70;99.90;;;;;;5017791;28;20261;-73
2022/11/16 18:29:30;;;;;;;5.40;4.40;;;4.70;99.90;;;;;;5015542;28;20728;-72
2022/11/16 18:32:19;;;;;;;5.90;4.37;;;4.60;99.90;;;;;;5004625;28;20226;-73
2022/11/16 18:35:09;;;;;;;5.03;3.97;;;4.60;99.90;;;;;;5015190;28;20218;-73
2022/11/16 18:38:00;;;;;;;5.40;3.83;;;4.70;99.90;;;;;;5013928;28;20230;-72
2022/11/16 18:41:02;;;;;;;4.83;3.77;;;4.60;99.90;;;;;;5017396;28;20226;-72
2022/11/16 18:43:53;;;;;;;5.63;4.07;;;4.60;99.90;;;;;;5015175;28;20377;-73
2022/11/16 18:46:42;;;;;;;5.10;4.17;;;4.60;99.90;;;;;;5013516;28;20229;-76
2022/11/16 18:49:31;;;;;;;4.20;3.53;;;4.70;99.90;;;;;;5018649;28;20221;-78
2022/11/16 18:52:19;;;;;;;6.70;4.03;;;4.60;99.90;;;;;;5022791;28;20232;-77
2022/11/16 18:55:10;;;;;;;3.80;3.20;;;4.60;99.90;;;;;;5017731;28;20691;-76
2022/11/16 18:57:58;;;;;;;5.13;3.70;;;4.60;99.90;;;;;;5016083;28;20229;-76
2022/11/16 19:00:48;;;;;;;5.20;4.00;;;4.50;99.90;;;;;;5015934;28;20222;-77
2022/11/16 19:03:36;;;;;;;4.37;3.50;;;4.60;99.90;;;;;;5012457;28;20221;-77
2022/11/16 19:06:25;;;;;;;5.87;3.73;;;4.50;99.90;;;;;;5009602;28;20225;-77
2022/11/16 19:09:13;;;;;;;4.50;3.70;;;4.70;99.90;;;;;;5007305;28;20225;-78
2022/11/16 19:12:04;;;;;;;4.70;3.73;;;4.80;99.90;;;;;;5011528;28;20728;-77
2022/11/16 19:14:52;;;;;;;4.80;3.70;;;4.80;99.90;;;;;;5014529;28;20234;-77
2022/11/16 19:17:41;;;;;;;5.73;4.10;;;4.80;99.90;;;;;;5016011;28;20231;-77
2022/11/16 19:20:49;;;;;;;5.50;4.00;;;4.60;99.90;;;;;;5015720;28;20388;-77
2022/11/16 19:23:39;;;;;;;4.87;4.30;;;4.60;99.90;;;;;;5013693;28;20225;-77
2022/11/16 19:26:28;;;;;;;4.37;3.97;;;4.60;99.90;;;;;;5009864;28;20249;-78
2022/11/16 19:29:18;;;;;;;4.30;3.90;;;4.50;99.90;;;;;;5018392;28;20226;-77
2022/11/16 19:32:06;;;;;;;5.43;4.17;;;4.60;99.90;;;;;;5019646;28;20218;-76
2022/11/16 19:34:55;;;;;;;6.03;4.63;;;4.70;99.90;;;;;;5030082;28;20291;-77
2022/11/16 19:37:43;;;;;;;7.77;5.23;;;4.60;99.90;;;;;;5022999;28;20243;-77
2022/11/16 19:40:32;;;;;;;5.70;5.20;;;4.60;99.90;;;;;;5056688;28;20223;-76
2022/11/16 19:43:21;;;;;;;7.27;5.40;;;4.60;99.90;;;;;;5042054;28;20216;-76
2022/11/16 19:46:15;;;;;;;5.80;5.20;;;4.60;99.90;;;;;;5057723;28;20644;-75
2022/11/16 19:49:04;;;;;;;6.93;5.60;;;4.70;99.90;;;;;;5049601;28;20224;-76
2022/11/16 19:51:52;;;;;;;8.20;6.13;;;4.60;99.90;;;;;;5057147;28;20216;-76
2022/11/16 19:54:41;;;;;;;7.07;5.30;;;4.60;99.90;;;;;;5039851;28;20231;-76
2022/11/16 19:57:30;;;;;;;8.27;5.97;;;4.80;99.90;;;;;;5060549;28;20216;-77
2022/11/16 20:00:19;;;;;;;6.50;5.40;;;4.70;99.90;;;;;;5053897;28;20225;-77
2022/11/16 20:03:09;;;;;;;9.40;6.27;;;4.70;99.90;;;;;;5060838;28;20612;-77
2022/11/16 20:06:05;;;;;;;8.67;6.60;;;4.60;99.90;;;;;;5055527;28;21397;-77
2022/11/16 20:08:57;;;;;;;10.90;6.63;;;4.60;99.90;;;;;;5042797;28;20239;-76
2022/11/16 20:11:45;;;;;;;8.77;6.97;;;4.60;99.90;;;;;;5039126;28;20224;-77
2022/11/16 20:14:34;;;;;;;8.97;6.43;;;4.70;99.90;;;;;;5040691;28;20270;-76
2022/11/16 20:17:22;;;;;;;9.07;7.23;;;4.90;99.90;;;;;;5058406;28;20228;-76
2022/11/16 20:20:13;;;;;;;9.33;8.23;;;4.80;99.90;;;;;;5048016;28;20232;-76
2022/11/16 20:23:02;;;;;;;12.77;7.90;;;4.70;99.90;;;;;;5060618;28;20219;-75
2022/11/16 20:25:50;;;;;;;12.73;8.60;;;4.60;99.90;;;;;;5057726;28;20216;-76
2022/11/16 20:28:41;;;;;;;10.17;8.10;;;4.70;99.90;;;;;;5054027;28;20262;-76
2022/11/16 20:31:31;;;;;;;11.47;8.43;;;4.90;99.90;;;;;;5055694;28;20340;-76
2022/11/16 20:34:21;;;;;;;10.87;8.60;;;4.80;99.90;;;;;;5039789;28;20236;-77
2022/11/16 20:37:11;;;;;;;10.43;8.40;;;4.80;99.90;;;;;;5017946;28;20236;-76
2022/11/16 20:39:59;;;;;;;11.47;9.03;;;4.80;99.90;;;;;;5045245;28;20251;-76
2022/11/16 20:42:48;;;;;;;10.73;8.97;;;4.80;99.90;;;;;;5056799;28;20224;-77
2022/11/16 20:45:36;;;;;;;11.10;9.03;;;4.80;99.90;;;;;;5047789;28;20286;-77
2022/11/16 20:48:25;;;;;;;12.57;9.80;;;4.80;99.90;;;;;;5053796;28;20231;-77
2022/11/16 20:51:16;;;;;;;15.37;9.77;;;4.90;99.90;;;;;;5057534;28;20220;-77
2022/11/16 20:54:06;;;;;;;11.80;9.87;;;5.10;99.90;;;;;;5053633;28;20229;-77
2022/11/16 20:56:55;;;;;;;13.57;10.83;;;4.90;99.90;;;;;;5040719;28;20279;-76
2022/11/16 20:59:44;;;;;;;11.43;9.93;;;4.80;99.90;;;;;;5053087;28;20370;-77
2022/11/16 21:02:32;;;;;;;13.60;11.33;;;4.80;99.90;;;;;;5043919;28;20221;-77
2022/11/16 21:05:21;;;;;;;13.13;10.90;;;4.70;99.90;;;;;;5033832;28;20253;-76
2022/11/16 21:08:11;;;;;;;13.33;10.50;;;4.80;99.90;;;;;;5029367;28;20220;-76
2022/11/16 21:11:01;;;;;;;13.70;10.87;;;4.90;99.90;;;;;;5038872;28;21748;-76
2022/11/16 21:16:57;;;;;;;12.70;10.43;;;4.80;99.90;;;;;;5053174;28;20755;-77
2022/11/16 21:19:45;;;;;;;14.40;11.23;;;4.80;99.90;;;;;;5056561;28;20232;-76
2022/11/16 21:22:54;;;;;;;13.03;11.43;;;4.80;99.90;;;;;;5043707;28;20227;-77
2022/11/16 21:25:43;;;;;;;13.47;11.07;;;5.00;99.90;;;;;;5062247;28;20244;-78
2022/11/16 21:28:33;;;;;;;15.33;11.57;;;4.80;99.90;;;;;;5060065;28;20227;-78
2022/11/16 21:31:24;;;;;;;12.90;10.67;;;4.90;99.90;;;;;;5055652;28;20223;-78
2022/11/16 21:34:13;;;;;;;13.60;10.90;;;4.80;99.90;;;;;;5047563;28;20234;-76
2022/11/16 21:37:01;;;;;;;12.10;10.80;;;4.90;99.90;;;;;;5049567;28;20236;-77
2022/11/16 21:39:49;;;;;;;13.20;10.93;;;5.00;99.90;;;;;;5066120;28;20220;-78
2022/11/16 21:42:38;;;;;;;12.00;10.17;;;5.10;99.90;;;;;;5048271;28;20718;-82
2022/11/16 21:45:28;;;;;;;11.83;10.10;;;4.80;99.90;;;;;;5060673;28;20237;-76
2022/11/16 21:48:17;;;;;;;11.93;9.87;;;4.90;99.90;;;;;;5048281;28;20232;-77
2022/11/16 21:51:07;;;;;;;12.03;9.87;;;4.80;99.90;;;;;;5060524;28;20243;-77
2022/11/16 21:53:56;;;;;;;10.50;9.27;;;5.00;99.90;;;;;;5044473;28;20228;-77
2022/11/16 21:56:45;;;;;;;12.33;9.50;;;4.80;99.90;;;;;;5048293;28;20771;-77
2022/11/16 21:59:34;;;;;;;15.80;9.80;;;4.80;99.90;;;;;;5043333;28;20780;-76
2022/11/16 22:02:24;;;;;;;12.73;10.10;;;4.80;99.90;;;;;;5058295;28;20230;-77
2022/11/16 22:08:19;;;;;;;10.20;9.10;;;4.80;99.90;;;;;;5049668;28;20746;-76
2022/11/16 22:11:09;;;;;;;10.83;9.20;;;4.70;99.90;;;;;;5045748;28;20220;-77
2022/11/16 22:13:57;;;;;;;10.60;8.50;;;4.60;99.90;;;;;;5062641;28;20588;-75
2022/11/16 22:16:46;;;;;;;11.70;8.33;;;4.80;99.90;;;;;;5041526;28;20225;-77
2022/11/16 22:19:36;;;;;;;9.47;8.47;;;4.80;99.90;;;;;;5064230;28;20229;-76
2022/11/16 22:22:25;;;;;;;9.50;8.23;;;5.00;99.90;;;;;;5043997;28;20209;-77
2022/11/16 22:25:14;;;;;;;9.73;8.13;;;4.80;99.90;;;;;;5030693;28;20674;-82
2022/11/16 22:29:01;;;;;;;7.77;6.57;;;4.90;99.90;;;;;;5078408;27;20591;-82
2022/11/16 22:31:49;;;;;;;8.73;7.50;;;4.80;99.90;;;;;;5090348;28;20223;-83
2022/11/16 22:34:38;;;;;;;9.03;6.53;;;4.80;99.90;;;;;;5084513;28;20215;-82
2022/11/16 22:37:27;;;;;;;8.17;6.50;;;4.70;99.90;;;;;;5090926;28;20238;-82
2022/11/16 22:40:15;;;;;;;7.70;6.40;;;4.80;99.90;;;;;;5084657;28;20230;-82
2022/11/16 22:43:05;;;;;;;8.43;6.40;;;4.90;99.90;;;;;;5074668;28;20255;-82